• Join FlightAware (Why Join?)
  • Login
  • US Flag 
10:16PM EDT


 

Airport Tracker/Info


-or-


 

Live Flight TrackerFlight Track Log ✈ EJA953 ✈ 12-Aug-2013 ✈ KSUS - KICT

Flight Track Log - Related Links

Times and Time Zones

All times are in EDT time to prevent confusion due to time zone crossing. See the EJA953 flight status page for this flight to view local times or setup timezone preferences in your user account.

Time Position Orientation Groundspeed Altitude Reporting Facility
EDT Latitude Longitude Course Direction KTS MPH feet Rate Location/Type
07:29PM 38.6292 -90.7533 245° Southwest 207 238 4,100  Level Kansas City Center
07:30PM 38.5903 -90.8283 236° Southwest 212 244 7,600 3,180 Climbing Kansas City Center
07:31PM 38.5489 -90.9111 237° Southwest 265 305 10,800 2,280 Climbing Kansas City Center
07:32PM 38.5064 -91.0006 239° Southwest 289 333 12,400 1,620 Climbing Kansas City Center
07:33PM 38.8004 -90.5528 231° Southwest  Level FlightAware Approximate
07:33PM 38.4544 -91.1050 238° Southwest 340 391 14,200  Level Kansas City Center
07:34PM 38.4011 -91.2128 238° Southwest 356 410 16,600 2,100 Climbing Kansas City Center
07:35PM 38.3489 -91.3164 237° Southwest 352 405 18,500 1,920 Climbing Kansas City Center
07:36PM 38.2886 -91.4403 238° Southwest 360 414 20,600 1,860 Climbing Kansas City Center
07:37PM 38.2336 -91.5494 237° Southwest 364 419 22,400 1,680 Climbing Kansas City Center
07:38PM 38.1781 -91.6600 237° Southwest 369 425 24,100 1,860 Climbing Kansas City Center
07:39PM 38.1483 -91.7831 253° West 368 423 26,200 1,980 Climbing Kansas City Center
07:40PM 38.1394 -91.9383 266° West 367 422 28,300 1,740 Climbing Kansas City Center
07:41PM 38.1306 -92.0700 265° West 372 428 29,800 1,200 Climbing Kansas City Center
07:42PM 38.1211 -92.2158 265° West 385 443 30,900 1,020 Climbing Kansas City Center
07:43PM 38.1117 -92.3586 265° West 402 463 32,000 540 Climbing Kansas City Center
07:44PM 38.1017 -92.5128 265° West 434 499 32,000  Level Kansas City Center
07:45PM 38.0894 -92.6683 264° West 444 511 32,000  Level Kansas City Center
07:46PM 38.0767 -92.8383 265° West 448 516 32,000  Level Kansas City Center
07:47PM 38.0644 -92.9967 264° West 451 519 32,000  Level Kansas City Center
07:48PM 38.0522 -93.1525 264° West 447 514 32,000  Level Kansas City Center
07:49PM 38.0408 -93.3081 265° West 444 511 32,000  Level Kansas City Center
07:50PM 38.0261 -93.4928 264° West 440 506 32,000  Level Kansas City Center
07:51PM 38.0150 -93.6467 265° West 439 505 32,000  Level Kansas City Center
07:52PM 38.0025 -93.8011 264° West 440 506 32,000  Level Kansas City Center
07:53PM 37.9897 -93.9569 264° West 443 510 32,000  Level Kansas City Center
07:54PM 37.9761 -94.1169 264° West 446 513 32,000  Level Kansas City Center
07:55PM 37.9631 -94.2708 264° West 448 516 32,000  Level Kansas City Center
07:56PM 37.9489 -94.4422 264° West 447 514 32,000  Level Kansas City Center
07:58PM 37.9353 -94.5942 264° West 449 517 32,000  Level Kansas City Center
07:59PM 37.9200 -94.7706 264° West 452 520 32,000  Level Kansas City Center
08:00PM 37.9042 -94.9447 263° West 447 514 32,000  Level Kansas City Center
08:01PM 37.8908 -95.0947 264° West 447 514 32,000  Level Kansas City Center
08:02PM 37.8775 -95.2389 263° West 445 512 32,000  Level Kansas City Center
08:03PM 37.8589 -95.4236 263° West 444 511 32,000 -840 Level Kansas City Center
08:04PM 37.8442 -95.5800 263° West 445 512 30,400 -2,640 Descending Kansas City Center
08:05PM 37.8292 -95.7367 263° West 448 516 26,600 -3,780 Descending Kansas City Center
08:06PM 37.8133 -95.8861 262° West 439 505 22,600 -3,240 Descending Kansas City Center
08:07PM 37.8000 -96.0239 263° West 411 473 20,100 -1,500 Descending Kansas City Center
08:08PM 37.7869 -96.1500 263° West 389 448 19,600 -540 Descending Kansas City Center
08:09PM 37.7581 -96.3097 257° West 389 448 19,000 -540 Descending Kansas City Center
08:10PM 37.7339 -96.4447 265° West 393 452 18,500 -1,020 Descending Kansas City Center
08:11PM 37.7326 -96.4932 265° West  Level FlightAware Approximate
08:11PM 37.7167 -96.5611 259° West 404 465 17,100  Level Kansas City Center
08:12PM 37.7069 -96.7203 266° West 394 453 14,000 -2,820 Descending Kansas City Center
08:13PM 37.6964 -96.8531 264° West 350 403 10,900 -2,100 Descending Kansas City Center
08:14PM 37.6994 -96.9636 272° West 299 344 9,700 -2,160 Descending Kansas City Center
08:15PM 37.7056 -97.0658 274° West 263 303 6,600 -2,580 Descending Kansas City Center
08:16PM 37.7122 -97.1547 275° West 255 293 4,500 -1,320 Descending Kansas City Center
08:17PM 37.7197 -97.2303 277° West 202 232 4,000 -480 Descending Kansas City Center
08:18PM 37.7217 -97.2908 272° West 171 197 3,600 -660 Descending Kansas City Center
08:19PM 37.7128 -97.3506 259° West 180 207 2,800 -900 Descending Kansas City Center
08:20PM 37.6908 -97.4042 243° Southwest 166 191 1,900 -660 Descending Kansas City Center
08:21PM 37.6481 -97.4222 198° South 154 177 1,400 -420 Descending Kansas City Center
08:23PM 37.6333 -97.4167 238° Southwest  Level FlightAware Approximate
08:30PM 37.6499 -97.4331 238° Southwest  Level Estimated
08:31PM 37.6499 -97.4331 238° Southwest  Level Estimated